sensor_id;sensor_type;location;lat;lon;timestamp;temperature;humidity
29663;DHT22;16578;53.266;7.920;2023-05-20T00:00:30;15.70;61.50
29663;DHT22;16578;53.266;7.920;2023-05-20T00:02:55;15.70;60.70
29663;DHT22;16578;53.266;7.920;2023-05-20T00:05:22;15.70;60.70
29663;DHT22;16578;53.266;7.920;2023-05-20T00:07:47;15.60;60.70
29663;DHT22;16578;53.266;7.920;2023-05-20T00:10:13;15.60;60.80
29663;DHT22;16578;53.266;7.920;2023-05-20T00:12:39;15.60;60.80
29663;DHT22;16578;53.266;7.920;2023-05-20T00:15:05;15.60;60.90
29663;DHT22;16578;53.266;7.920;2023-05-20T00:17:31;15.60;60.90
29663;DHT22;16578;53.266;7.920;2023-05-20T00:19:56;15.60;60.80
29663;DHT22;16578;53.266;7.920;2023-05-20T00:22:22;15.60;60.80
29663;DHT22;16578;53.266;7.920;2023-05-20T00:24:47;15.60;60.80
29663;DHT22;16578;53.266;7.920;2023-05-20T00:27:13;15.60;60.80
29663;DHT22;16578;53.266;7.920;2023-05-20T00:29:38;15.60;60.70
29663;DHT22;16578;53.266;7.920;2023-05-20T00:32:04;15.60;60.70
29663;DHT22;16578;53.266;7.920;2023-05-20T00:34:30;15.60;60.80
29663;DHT22;16578;53.266;7.920;2023-05-20T00:36:55;15.60;60.70
29663;DHT22;16578;53.266;7.920;2023-05-20T00:39:21;15.60;60.70
29663;DHT22;16578;53.266;7.920;2023-05-20T00:41:46;15.60;60.60
29663;DHT22;16578;53.266;7.920;2023-05-20T00:44:12;15.60;60.60
29663;DHT22;16578;53.266;7.920;2023-05-20T00:46:37;15.60;60.60
29663;DHT22;16578;53.266;7.920;2023-05-20T00:49:04;15.60;60.70
29663;DHT22;16578;53.266;7.920;2023-05-20T00:51:29;15.60;60.70
29663;DHT22;16578;53.266;7.920;2023-05-20T00:53:55;15.60;60.70
29663;DHT22;16578;53.266;7.920;2023-05-20T00:56:22;15.60;60.70
29663;DHT22;16578;53.266;7.920;2023-05-20T00:58:48;15.60;60.70
29663;DHT22;16578;53.266;7.920;2023-05-20T01:01:14;15.60;60.70
29663;DHT22;16578;53.266;7.920;2023-05-20T01:03:40;15.60;60.70
29663;DHT22;16578;53.266;7.920;2023-05-20T01:06:05;15.60;60.70
29663;DHT22;16578;53.266;7.920;2023-05-20T01:08:31;15.60;60.60
29663;DHT22;16578;53.266;7.920;2023-05-20T01:11:17;15.60;60.60
29663;DHT22;16578;53.266;7.920;2023-05-20T01:13:50;15.60;60.60
29663;DHT22;16578;53.266;7.920;2023-05-20T01:16:17;15.60;60.50
29663;DHT22;16578;53.266;7.920;2023-05-20T01:18:44;15.60;60.50
29663;DHT22;16578;53.266;7.920;2023-05-20T01:21:12;15.60;60.50
29663;DHT22;16578;53.266;7.920;2023-05-20T01:23:40;15.60;60.40
29663;DHT22;16578;53.266;7.920;2023-05-20T01:26:07;15.60;60.40
29663;DHT22;16578;53.266;7.920;2023-05-20T01:28:34;15.60;60.30
29663;DHT22;16578;53.266;7.920;2023-05-20T01:31:02;15.60;60.30
29663;DHT22;16578;53.266;7.920;2023-05-20T01:33:30;15.60;60.30
29663;DHT22;16578;53.266;7.920;2023-05-20T01:35:56;15.50;60.10
29663;DHT22;16578;53.266;7.920;2023-05-20T01:38:24;15.50;60.10
29663;DHT22;16578;53.266;7.920;2023-05-20T01:40:50;15.50;60.10
29663;DHT22;16578;53.266;7.920;2023-05-20T01:43:17;15.50;60.20
29663;DHT22;16578;53.266;7.920;2023-05-20T01:45:43;15.50;60.20
29663;DHT22;16578;53.266;7.920;2023-05-20T01:48:12;15.50;60.00
29663;DHT22;16578;53.266;7.920;2023-05-20T01:50:38;15.60;60.00
29663;DHT22;16578;53.266;7.920;2023-05-20T01:53:04;15.50;59.80
29663;DHT22;16578;53.266;7.920;2023-05-20T01:55:30;15.50;59.80
29663;DHT22;16578;53.266;7.920;2023-05-20T01:57:56;15.50;59.70
29663;DHT22;16578;53.266;7.920;2023-05-20T02:00:21;15.50;59.70
29663;DHT22;16578;53.266;7.920;2023-05-20T02:02:47;15.50;59.60
29663;DHT22;16578;53.266;7.920;2023-05-20T02:05:12;15.40;59.60
29663;DHT22;16578;53.266;7.920;2023-05-20T02:07:38;15.40;59.50
29663;DHT22;16578;53.266;7.920;2023-05-20T02:10:04;15.40;59.40
29663;DHT22;16578;53.266;7.920;2023-05-20T02:12:29;15.40;59.40
29663;DHT22;16578;53.266;7.920;2023-05-20T02:14:55;15.40;59.30
29663;DHT22;16578;53.266;7.920;2023-05-20T02:17:21;15.30;59.20
29663;DHT22;16578;53.266;7.920;2023-05-20T02:19:46;15.30;59.20
29663;DHT22;16578;53.266;7.920;2023-05-20T02:22:13;15.30;59.20
29663;DHT22;16578;53.266;7.920;2023-05-20T02:24:38;15.30;59.10
29663;DHT22;16578;53.266;7.920;2023-05-20T02:27:04;15.30;59.00
29663;DHT22;16578;53.266;7.920;2023-05-20T02:29:31;15.20;58.90
29663;DHT22;16578;53.266;7.920;2023-05-20T02:31:57;15.20;58.90
29663;DHT22;16578;53.266;7.920;2023-05-20T02:34:22;15.20;58.80
29663;DHT22;16578;53.266;7.920;2023-05-20T02:36:50;15.20;58.80
29663;DHT22;16578;53.266;7.920;2023-05-20T02:39:16;15.10;58.60
29663;DHT22;16578;53.266;7.920;2023-05-20T02:41:41;15.10;59.20
29663;DHT22;16578;53.266;7.920;2023-05-20T02:44:07;15.00;58.40
29663;DHT22;16578;53.266;7.920;2023-05-20T02:46:32;15.00;58.40
29663;DHT22;16578;53.266;7.920;2023-05-20T02:48:58;14.90;58.30
29663;DHT22;16578;53.266;7.920;2023-05-20T02:51:24;14.90;58.30
29663;DHT22;16578;53.266;7.920;2023-05-20T02:53:50;14.80;58.30
29663;DHT22;16578;53.266;7.920;2023-05-20T02:56:15;14.70;58.20
29663;DHT22;16578;53.266;7.920;2023-05-20T02:58:45;14.70;58.20
29663;DHT22;16578;53.266;7.920;2023-05-20T03:01:11;14.70;58.20
29663;DHT22;16578;53.266;7.920;2023-05-20T03:03:36;14.60;58.20
29663;DHT22;16578;53.266;7.920;2023-05-20T03:06:02;14.60;58.20
29663;DHT22;16578;53.266;7.920;2023-05-20T03:08:28;14.50;58.20
29663;DHT22;16578;53.266;7.920;2023-05-20T03:10:54;14.50;58.20
29663;DHT22;16578;53.266;7.920;2023-05-20T03:13:19;14.40;58.20
29663;DHT22;16578;53.266;7.920;2023-05-20T03:15:45;14.40;58.30
29663;DHT22;16578;53.266;7.920;2023-05-20T03:18:11;14.30;58.30
29663;DHT22;16578;53.266;7.920;2023-05-20T03:20:39;14.30;58.40
29663;DHT22;16578;53.266;7.920;2023-05-20T03:23:06;14.30;58.40
29663;DHT22;16578;53.266;7.920;2023-05-20T03:25:32;14.30;58.50
29663;DHT22;16578;53.266;7.920;2023-05-20T03:27:57;14.20;58.50
29663;DHT22;16578;53.266;7.920;2023-05-20T03:30:24;14.20;58.50
29663;DHT22;16578;53.266;7.920;2023-05-20T03:32:50;14.20;58.40
29663;DHT22;16578;53.266;7.920;2023-05-20T03:35:16;14.10;58.30
29663;DHT22;16578;53.266;7.920;2023-05-20T03:37:42;14.10;58.30
29663;DHT22;16578;53.266;7.920;2023-05-20T03:40:08;14.00;58.30
29663;DHT22;16578;53.266;7.920;2023-05-20T03:42:37;14.00;58.40
29663;DHT22;16578;53.266;7.920;2023-05-20T03:45:04;14.00;58.50
29663;DHT22;16578;53.266;7.920;2023-05-20T03:47:30;13.90;58.50
29663;DHT22;16578;53.266;7.920;2023-05-20T03:49:55;13.90;58.60
29663;DHT22;16578;53.266;7.920;2023-05-20T03:52:21;13.90;58.60
29663;DHT22;16578;53.266;7.920;2023-05-20T03:54:46;13.90;58.80
29663;DHT22;16578;53.266;7.920;2023-05-20T03:57:12;13.90;59.00
29663;DHT22;16578;53.266;7.920;2023-05-20T03:59:38;13.90;58.90
29663;DHT22;16578;53.266;7.920;2023-05-20T04:02:04;13.90;58.90
29663;DHT22;16578;53.266;7.920;2023-05-20T04:04:30;13.90;59.00
29663;DHT22;16578;53.266;7.920;2023-05-20T04:06:57;13.90;59.00
29663;DHT22;16578;53.266;7.920;2023-05-20T04:09:22;13.80;59.10
29663;DHT22;16578;53.266;7.920;2023-05-20T04:11:48;13.80;59.20
29663;DHT22;16578;53.266;7.920;2023-05-20T04:14:13;13.80;59.30
29663;DHT22;16578;53.266;7.920;2023-05-20T04:16:40;13.80;59.30
29663;DHT22;16578;53.266;7.920;2023-05-20T04:19:05;13.80;59.30
29663;DHT22;16578;53.266;7.920;2023-05-20T04:21:31;13.80;59.50
29663;DHT22;16578;53.266;7.920;2023-05-20T04:23:57;13.80;59.50
29663;DHT22;16578;53.266;7.920;2023-05-20T04:26:23;13.80;59.60
29663;DHT22;16578;53.266;7.920;2023-05-20T04:28:48;13.80;59.60
29663;DHT22;16578;53.266;7.920;2023-05-20T04:31:14;13.80;59.60
29663;DHT22;16578;53.266;7.920;2023-05-20T04:33:40;13.80;59.50
29663;DHT22;16578;53.266;7.920;2023-05-20T04:36:08;13.80;59.50
29663;DHT22;16578;53.266;7.920;2023-05-20T04:38:34;13.80;59.40
29663;DHT22;16578;53.266;7.920;2023-05-20T04:41:00;13.70;59.40
29663;DHT22;16578;53.266;7.920;2023-05-20T04:43:27;13.70;59.60
29663;DHT22;16578;53.266;7.920;2023-05-20T04:45:57;13.70;59.60
29663;DHT22;16578;53.266;7.920;2023-05-20T04:48:24;13.70;59.60
29663;DHT22;16578;53.266;7.920;2023-05-20T04:50:49;13.60;59.60
29663;DHT22;16578;53.266;7.920;2023-05-20T04:53:16;13.70;59.70
29663;DHT22;16578;53.266;7.920;2023-05-20T04:55:42;13.60;59.70
29663;DHT22;16578;53.266;7.920;2023-05-20T04:58:09;13.60;59.80
29663;DHT22;16578;53.266;7.920;2023-05-20T05:00:40;13.60;59.80
29663;DHT22;16578;53.266;7.920;2023-05-20T05:03:06;13.60;59.90
29663;DHT22;16578;53.266;7.920;2023-05-20T05:05:34;13.60;59.90
29663;DHT22;16578;53.266;7.920;2023-05-20T05:08:00;13.60;60.00
29663;DHT22;16578;53.266;7.920;2023-05-20T05:10:25;13.60;60.10
29663;DHT22;16578;53.266;7.920;2023-05-20T05:12:51;13.60;60.30
29663;DHT22;16578;53.266;7.920;2023-05-20T05:15:16;13.60;60.50
29663;DHT22;16578;53.266;7.920;2023-05-20T05:17:42;13.60;60.60
29663;DHT22;16578;53.266;7.920;2023-05-20T05:20:08;13.60;60.70
29663;DHT22;16578;53.266;7.920;2023-05-20T05:22:34;13.70;60.70
29663;DHT22;16578;53.266;7.920;2023-05-20T05:25:02;13.60;60.60
29663;DHT22;16578;53.266;7.920;2023-05-20T05:27:28;13.70;60.90
29663;DHT22;16578;53.266;7.920;2023-05-20T05:29:53;13.80;61.10
29663;DHT22;16578;53.266;7.920;2023-05-20T05:32:19;13.80;61.40
29663;DHT22;16578;53.266;7.920;2023-05-20T05:34:45;13.90;61.60
29663;DHT22;16578;53.266;7.920;2023-05-20T05:37:10;13.90;61.40
29663;DHT22;16578;53.266;7.920;2023-05-20T05:39:36;14.00;62.30
29663;DHT22;16578;53.266;7.920;2023-05-20T05:42:03;14.00;61.40
29663;DHT22;16578;53.266;7.920;2023-05-20T05:44:29;14.10;61.40
29663;DHT22;16578;53.266;7.920;2023-05-20T05:46:55;14.20;61.40
29663;DHT22;16578;53.266;7.920;2023-05-20T05:49:20;14.20;61.40
29663;DHT22;16578;53.266;7.920;2023-05-20T05:51:46;14.30;61.30
29663;DHT22;16578;53.266;7.920;2023-05-20T05:54:12;14.40;61.30
29663;DHT22;16578;53.266;7.920;2023-05-20T05:56:37;14.50;61.50
29663;DHT22;16578;53.266;7.920;2023-05-20T05:59:03;14.70;61.70
29663;DHT22;16578;53.266;7.920;2023-05-20T06:01:29;14.80;61.40
29663;DHT22;16578;53.266;7.920;2023-05-20T06:03:55;14.90;61.20
29663;DHT22;16578;53.266;7.920;2023-05-20T06:06:20;15.10;61.20
29663;DHT22;16578;53.266;7.920;2023-05-20T06:08:46;15.20;61.10
29663;DHT22;16578;53.266;7.920;2023-05-20T06:11:11;15.40;60.80
29663;DHT22;16578;53.266;7.920;2023-05-20T06:13:37;15.50;60.50
29663;DHT22;16578;53.266;7.920;2023-05-20T06:16:03;15.70;60.40
29663;DHT22;16578;53.266;7.920;2023-05-20T06:18:28;15.80;60.30
29663;DHT22;16578;53.266;7.920;2023-05-20T06:20:55;15.90;60.00
29663;DHT22;16578;53.266;7.920;2023-05-20T06:23:21;16.10;59.80
29663;DHT22;16578;53.266;7.920;2023-05-20T06:25:46;16.20;59.50
29663;DHT22;16578;53.266;7.920;2023-05-20T06:28:13;16.30;59.20
29663;DHT22;16578;53.266;7.920;2023-05-20T06:30:39;16.40;59.00
29663;DHT22;16578;53.266;7.920;2023-05-20T06:33:05;16.50;59.10
29663;DHT22;16578;53.266;7.920;2023-05-20T06:35:30;16.50;59.10
29663;DHT22;16578;53.266;7.920;2023-05-20T06:37:59;16.60;59.30
29663;DHT22;16578;53.266;7.920;2023-05-20T06:40:26;16.70;59.20
29663;DHT22;16578;53.266;7.920;2023-05-20T06:42:52;16.90;58.90
29663;DHT22;16578;53.266;7.920;2023-05-20T06:45:17;16.90;58.70
29663;DHT22;16578;53.266;7.920;2023-05-20T06:47:43;17.10;58.60
29663;DHT22;16578;53.266;7.920;2023-05-20T06:50:10;17.20;58.20
29663;DHT22;16578;53.266;7.920;2023-05-20T06:52:35;17.20;58.20
29663;DHT22;16578;53.266;7.920;2023-05-20T06:55:02;17.30;58.20
29663;DHT22;16578;53.266;7.920;2023-05-20T06:57:28;17.30;58.10
29663;DHT22;16578;53.266;7.920;2023-05-20T06:59:53;17.40;57.90
29663;DHT22;16578;53.266;7.920;2023-05-20T07:02:20;17.50;57.70
29663;DHT22;16578;53.266;7.920;2023-05-20T07:04:46;17.50;57.60
29663;DHT22;16578;53.266;7.920;2023-05-20T07:07:12;17.60;57.60
29663;DHT22;16578;53.266;7.920;2023-05-20T07:09:37;17.70;57.80
29663;DHT22;16578;53.266;7.920;2023-05-20T07:12:03;17.80;57.90
29663;DHT22;16578;53.266;7.920;2023-05-20T07:14:29;17.90;57.60
29663;DHT22;16578;53.266;7.920;2023-05-20T07:16:54;17.90;57.10
29663;DHT22;16578;53.266;7.920;2023-05-20T07:19:20;18.00;57.20
29663;DHT22;16578;53.266;7.920;2023-05-20T07:21:45;18.00;57.10
29663;DHT22;16578;53.266;7.920;2023-05-20T07:24:11;18.10;57.20
29663;DHT22;16578;53.266;7.920;2023-05-20T07:26:37;18.10;57.40
29663;DHT22;16578;53.266;7.920;2023-05-20T07:29:03;18.20;57.70
29663;DHT22;16578;53.266;7.920;2023-05-20T07:31:29;18.30;57.40
29663;DHT22;16578;53.266;7.920;2023-05-20T07:33:55;18.40;57.30
29663;DHT22;16578;53.266;7.920;2023-05-20T07:36:21;18.40;57.10
29663;DHT22;16578;53.266;7.920;2023-05-20T07:38:46;18.50;56.60
29663;DHT22;16578;53.266;7.920;2023-05-20T07:41:12;18.60;57.00
29663;DHT22;16578;53.266;7.920;2023-05-20T07:43:37;18.60;56.30
29663;DHT22;16578;53.266;7.920;2023-05-20T07:46:03;18.60;56.60
29663;DHT22;16578;53.266;7.920;2023-05-20T07:48:29;18.70;56.90
29663;DHT22;16578;53.266;7.920;2023-05-20T07:50:54;18.70;56.80
29663;DHT22;16578;53.266;7.920;2023-05-20T07:53:23;18.80;56.80
29663;DHT22;16578;53.266;7.920;2023-05-20T07:55:49;18.90;56.70
29663;DHT22;16578;53.266;7.920;2023-05-20T07:58:15;19.00;56.80
29663;DHT22;16578;53.266;7.920;2023-05-20T08:00:40;19.10;56.80
29663;DHT22;16578;53.266;7.920;2023-05-20T08:03:06;19.10;56.50
29663;DHT22;16578;53.266;7.920;2023-05-20T08:05:35;19.20;56.30
29663;DHT22;16578;53.266;7.920;2023-05-20T08:08:00;19.30;56.20
29663;DHT22;16578;53.266;7.920;2023-05-20T08:10:26;19.30;55.80
29663;DHT22;16578;53.266;7.920;2023-05-20T08:12:51;19.30;55.60
29663;DHT22;16578;53.266;7.920;2023-05-20T08:15:17;19.30;55.50
29663;DHT22;16578;53.266;7.920;2023-05-20T08:17:44;19.30;55.50
29663;DHT22;16578;53.266;7.920;2023-05-20T08:20:10;19.30;55.80
29663;DHT22;16578;53.266;7.920;2023-05-20T08:22:37;19.40;56.10
29663;DHT22;16578;53.266;7.920;2023-05-20T08:25:05;19.40;56.00
29663;DHT22;16578;53.266;7.920;2023-05-20T08:27:32;19.50;56.30
29663;DHT22;16578;53.266;7.920;2023-05-20T08:29:57;19.60;56.30
29663;DHT22;16578;53.266;7.920;2023-05-20T08:32:23;19.70;56.50
29663;DHT22;16578;53.266;7.920;2023-05-20T08:34:49;19.80;56.30
29663;DHT22;16578;53.266;7.920;2023-05-20T08:37:15;19.90;56.30
29663;DHT22;16578;53.266;7.920;2023-05-20T08:39:41;20.00;55.70
29663;DHT22;16578;53.266;7.920;2023-05-20T08:42:07;20.10;55.20
29663;DHT22;16578;53.266;7.920;2023-05-20T08:44:35;20.10;55.00
29663;DHT22;16578;53.266;7.920;2023-05-20T08:47:02;20.20;54.80
29663;DHT22;16578;53.266;7.920;2023-05-20T08:49:28;20.20;54.40
29663;DHT22;16578;53.266;7.920;2023-05-20T08:51:54;20.30;54.50
29663;DHT22;16578;53.266;7.920;2023-05-20T08:54:20;20.30;54.40
29663;DHT22;16578;53.266;7.920;2023-05-20T08:56:48;20.40;54.00
29663;DHT22;16578;53.266;7.920;2023-05-20T08:59:14;20.50;54.40
29663;DHT22;16578;53.266;7.920;2023-05-20T09:01:41;20.50;54.50
29663;DHT22;16578;53.266;7.920;2023-05-20T09:04:08;20.60;54.40
29663;DHT22;16578;53.266;7.920;2023-05-20T09:06:44;20.60;53.80
29663;DHT22;16578;53.266;7.920;2023-05-20T09:09:12;20.70;53.80
29663;DHT22;16578;53.266;7.920;2023-05-20T09:11:39;20.70;53.80
29663;DHT22;16578;53.266;7.920;2023-05-20T09:14:05;20.60;53.90
29663;DHT22;16578;53.266;7.920;2023-05-20T09:16:31;20.70;53.80
29663;DHT22;16578;53.266;7.920;2023-05-20T09:18:57;20.70;54.10
29663;DHT22;16578;53.266;7.920;2023-05-20T09:21:26;20.80;54.20
29663;DHT22;16578;53.266;7.920;2023-05-20T09:23:52;20.90;54.00
29663;DHT22;16578;53.266;7.920;2023-05-20T09:26:18;20.90;53.90
29663;DHT22;16578;53.266;7.920;2023-05-20T09:28:44;21.00;53.90
29663;DHT22;16578;53.266;7.920;2023-05-20T09:31:13;21.00;52.70
29663;DHT22;16578;53.266;7.920;2023-05-20T09:33:39;21.10;52.50
29663;DHT22;16578;53.266;7.920;2023-05-20T09:36:09;21.00;52.40
29663;DHT22;16578;53.266;7.920;2023-05-20T09:38:38;21.10;52.00
29663;DHT22;16578;53.266;7.920;2023-05-20T09:41:06;21.10;51.30
29663;DHT22;16578;53.266;7.920;2023-05-20T09:43:34;21.10;51.60
29663;DHT22;16578;53.266;7.920;2023-05-20T09:45:59;21.10;51.40
29663;DHT22;16578;53.266;7.920;2023-05-20T09:48:26;21.10;50.90
29663;DHT22;16578;53.266;7.920;2023-05-20T09:50:53;21.10;50.80
29663;DHT22;16578;53.266;7.920;2023-05-20T09:53:21;21.00;50.80
29663;DHT22;16578;53.266;7.920;2023-05-20T09:55:48;21.00;51.10
29663;DHT22;16578;53.266;7.920;2023-05-20T09:58:16;21.10;51.00
29663;DHT22;16578;53.266;7.920;2023-05-20T10:00:44;21.10;50.60
29663;DHT22;16578;53.266;7.920;2023-05-20T10:03:09;21.10;50.90
29663;DHT22;16578;53.266;7.920;2023-05-20T10:05:47;21.20;50.50
29663;DHT22;16578;53.266;7.920;2023-05-20T10:16:49;21.40;50.70
29663;DHT22;16578;53.266;7.920;2023-05-20T10:19:27;21.50;49.90
29663;DHT22;16578;53.266;7.920;2023-05-20T10:22:01;21.50;50.10
29663;DHT22;16578;53.266;7.920;2023-05-20T10:24:31;21.50;49.80
29663;DHT22;16578;53.266;7.920;2023-05-20T10:26:57;21.60;49.80
29663;DHT22;16578;53.266;7.920;2023-05-20T10:29:24;21.60;49.80
29663;DHT22;16578;53.266;7.920;2023-05-20T10:31:51;21.60;49.80
29663;DHT22;16578;53.266;7.920;2023-05-20T10:34:19;21.70;49.40
29663;DHT22;16578;53.266;7.920;2023-05-20T10:36:46;21.70;49.50
29663;DHT22;16578;53.266;7.920;2023-05-20T10:39:15;21.70;49.70
29663;DHT22;16578;53.266;7.920;2023-05-20T10:41:42;21.80;49.50
29663;DHT22;16578;53.266;7.920;2023-05-20T10:44:07;21.80;49.20
29663;DHT22;16578;53.266;7.920;2023-05-20T10:46:34;21.70;49.20
29663;DHT22;16578;53.266;7.920;2023-05-20T10:49:02;21.70;49.00
29663;DHT22;16578;53.266;7.920;2023-05-20T10:51:29;21.70;49.00
29663;DHT22;16578;53.266;7.920;2023-05-20T10:53:56;21.70;48.90
29663;DHT22;16578;53.266;7.920;2023-05-20T10:56:25;21.70;48.30
29663;DHT22;16578;53.266;7.920;2023-05-20T10:58:51;21.60;48.60
29663;DHT22;16578;53.266;7.920;2023-05-20T11:01:18;21.60;48.10
29663;DHT22;16578;53.266;7.920;2023-05-20T11:03:48;21.70;48.20
29663;DHT22;16578;53.266;7.920;2023-05-20T11:06:15;21.70;48.30
29663;DHT22;16578;53.266;7.920;2023-05-20T11:08:41;21.70;48.20
29663;DHT22;16578;53.266;7.920;2023-05-20T11:11:07;21.80;47.70
29663;DHT22;16578;53.266;7.920;2023-05-20T11:13:33;21.80;47.70
29663;DHT22;16578;53.266;7.920;2023-05-20T11:16:00;21.80;47.10
29663;DHT22;16578;53.266;7.920;2023-05-20T11:18:26;21.90;47.80
29663;DHT22;16578;53.266;7.920;2023-05-20T11:20:55;21.90;47.90
29663;DHT22;16578;53.266;7.920;2023-05-20T11:23:21;21.90;48.20
29663;DHT22;16578;53.266;7.920;2023-05-20T11:25:52;22.00;48.30
29663;DHT22;16578;53.266;7.920;2023-05-20T11:28:21;22.10;47.70
29663;DHT22;16578;53.266;7.920;2023-05-20T11:30:47;22.20;47.40
29663;DHT22;16578;53.266;7.920;2023-05-20T11:33:17;22.20;47.10
29663;DHT22;16578;53.266;7.920;2023-05-20T11:35:52;22.30;46.60
29663;DHT22;16578;53.266;7.920;2023-05-20T11:38:19;22.30;46.50
29663;DHT22;16578;53.266;7.920;2023-05-20T11:40:53;22.40;46.60
29663;DHT22;16578;53.266;7.920;2023-05-20T11:43:19;22.30;46.50
29663;DHT22;16578;53.266;7.920;2023-05-20T11:45:47;22.30;46.50
29663;DHT22;16578;53.266;7.920;2023-05-20T11:48:18;22.30;46.30
29663;DHT22;16578;53.266;7.920;2023-05-20T11:50:45;22.30;46.40
29663;DHT22;16578;53.266;7.920;2023-05-20T11:53:19;22.30;46.20
29663;DHT22;16578;53.266;7.920;2023-05-20T11:55:46;22.30;46.60
29663;DHT22;16578;53.266;7.920;2023-05-20T11:58:21;22.30;46.70
29663;DHT22;16578;53.266;7.920;2023-05-20T12:00:47;22.30;46.40
29663;DHT22;16578;53.266;7.920;2023-05-20T12:03:12;22.30;46.30
29663;DHT22;16578;53.266;7.920;2023-05-20T12:05:38;22.30;46.70
29663;DHT22;16578;53.266;7.920;2023-05-20T12:08:05;22.30;46.60
29663;DHT22;16578;53.266;7.920;2023-05-20T12:10:31;22.30;46.00
29663;DHT22;16578;53.266;7.920;2023-05-20T12:12:57;22.20;46.00
29663;DHT22;16578;53.266;7.920;2023-05-20T12:15:22;22.20;46.00
29663;DHT22;16578;53.266;7.920;2023-05-20T12:17:50;22.10;46.00
29663;DHT22;16578;53.266;7.920;2023-05-20T12:20:19;22.10;46.20
29663;DHT22;16578;53.266;7.920;2023-05-20T12:22:46;22.00;46.50
29663;DHT22;16578;53.266;7.920;2023-05-20T12:25:13;22.00;47.00
29663;DHT22;16578;53.266;7.920;2023-05-20T12:27:40;22.00;46.80
29663;DHT22;16578;53.266;7.920;2023-05-20T12:30:07;22.00;46.70
29663;DHT22;16578;53.266;7.920;2023-05-20T12:32:34;22.10;47.20
29663;DHT22;16578;53.266;7.920;2023-05-20T12:35:00;22.10;47.40
29663;DHT22;16578;53.266;7.920;2023-05-20T12:37:25;22.20;46.70
29663;DHT22;16578;53.266;7.920;2023-05-20T12:39:51;22.20;46.50
29663;DHT22;16578;53.266;7.920;2023-05-20T12:42:17;22.20;46.40
29663;DHT22;16578;53.266;7.920;2023-05-20T12:44:42;22.20;46.30
29663;DHT22;16578;53.266;7.920;2023-05-20T12:47:08;22.20;46.10
29663;DHT22;16578;53.266;7.920;2023-05-20T12:49:34;22.20;46.40
29663;DHT22;16578;53.266;7.920;2023-05-20T12:51:59;22.20;46.30
29663;DHT22;16578;53.266;7.920;2023-05-20T12:54:25;22.20;46.40
29663;DHT22;16578;53.266;7.920;2023-05-20T12:56:55;22.20;46.10
29663;DHT22;16578;53.266;7.920;2023-05-20T12:59:21;22.20;46.20
29663;DHT22;16578;53.266;7.920;2023-05-20T13:01:47;22.20;46.20
29663;DHT22;16578;53.266;7.920;2023-05-20T13:04:13;22.10;46.30
29663;DHT22;16578;53.266;7.920;2023-05-20T13:06:38;22.10;46.50
29663;DHT22;16578;53.266;7.920;2023-05-20T13:09:04;22.00;46.40
29663;DHT22;16578;53.266;7.920;2023-05-20T13:11:29;22.00;46.50
29663;DHT22;16578;53.266;7.920;2023-05-20T13:13:55;22.00;46.90
29663;DHT22;16578;53.266;7.920;2023-05-20T13:16:22;21.90;47.00
29663;DHT22;16578;53.266;7.920;2023-05-20T13:18:48;21.90;46.90
29663;DHT22;16578;53.266;7.920;2023-05-20T13:21:13;21.90;47.20
29663;DHT22;16578;53.266;7.920;2023-05-20T13:23:40;21.90;47.20
29663;DHT22;16578;53.266;7.920;2023-05-20T13:26:06;21.90;47.10
29663;DHT22;16578;53.266;7.920;2023-05-20T13:28:31;21.90;47.20
29663;DHT22;16578;53.266;7.920;2023-05-20T13:30:57;21.90;47.10
29663;DHT22;16578;53.266;7.920;2023-05-20T13:33:22;21.90;46.80
29663;DHT22;16578;53.266;7.920;2023-05-20T13:35:49;21.80;46.50
29663;DHT22;16578;53.266;7.920;2023-05-20T13:38:15;21.80;46.80
29663;DHT22;16578;53.266;7.920;2023-05-20T13:40:40;21.70;47.70
29663;DHT22;16578;53.266;7.920;2023-05-20T13:43:06;21.70;47.20
29663;DHT22;16578;53.266;7.920;2023-05-20T13:45:32;21.80;47.70
29663;DHT22;16578;53.266;7.920;2023-05-20T13:47:57;21.80;47.40
29663;DHT22;16578;53.266;7.920;2023-05-20T13:50:23;21.80;47.40
29663;DHT22;16578;53.266;7.920;2023-05-20T13:52:48;21.80;47.20
29663;DHT22;16578;53.266;7.920;2023-05-20T13:55:14;21.80;47.00
29663;DHT22;16578;53.266;7.920;2023-05-20T13:57:41;21.80;47.20
29663;DHT22;16578;53.266;7.920;2023-05-20T14:00:07;21.80;46.80
29663;DHT22;16578;53.266;7.920;2023-05-20T14:02:33;21.80;46.90
29663;DHT22;16578;53.266;7.920;2023-05-20T14:04:59;21.80;47.00
29663;DHT22;16578;53.266;7.920;2023-05-20T14:07:24;21.80;47.20
29663;DHT22;16578;53.266;7.920;2023-05-20T14:09:50;21.80;47.20
29663;DHT22;16578;53.266;7.920;2023-05-20T14:12:15;21.80;47.20
29663;DHT22;16578;53.266;7.920;2023-05-20T14:14:41;21.80;47.10
29663;DHT22;16578;53.266;7.920;2023-05-20T14:17:06;21.80;47.00
29663;DHT22;16578;53.266;7.920;2023-05-20T14:19:32;21.80;46.80
29663;DHT22;16578;53.266;7.920;2023-05-20T14:21:57;21.70;46.80
29663;DHT22;16578;53.266;7.920;2023-05-20T14:24:25;21.70;47.10
29663;DHT22;16578;53.266;7.920;2023-05-20T14:26:51;21.70;47.40
29663;DHT22;16578;53.266;7.920;2023-05-20T14:29:17;21.60;47.40
29663;DHT22;16578;53.266;7.920;2023-05-20T14:31:42;21.60;47.10
29663;DHT22;16578;53.266;7.920;2023-05-20T14:34:08;21.60;47.40
29663;DHT22;16578;53.266;7.920;2023-05-20T14:36:34;21.60;47.40
29663;DHT22;16578;53.266;7.920;2023-05-20T14:38:59;21.60;47.80
29663;DHT22;16578;53.266;7.920;2023-05-20T14:41:25;21.60;48.00
29663;DHT22;16578;53.266;7.920;2023-05-20T14:43:50;21.60;47.90
29663;DHT22;16578;53.266;7.920;2023-05-20T14:46:16;21.60;48.00
29663;DHT22;16578;53.266;7.920;2023-05-20T14:48:42;21.60;47.90
29663;DHT22;16578;53.266;7.920;2023-05-20T14:51:07;21.60;47.60
29663;DHT22;16578;53.266;7.920;2023-05-20T14:53:33;21.60;47.90
29663;DHT22;16578;53.266;7.920;2023-05-20T14:55:59;21.60;48.00
29663;DHT22;16578;53.266;7.920;2023-05-20T14:58:24;21.60;48.10
29663;DHT22;16578;53.266;7.920;2023-05-20T15:00:52;21.60;48.10
29663;DHT22;16578;53.266;7.920;2023-05-20T15:03:17;21.60;47.90
29663;DHT22;16578;53.266;7.920;2023-05-20T15:05:43;21.60;47.90
29663;DHT22;16578;53.266;7.920;2023-05-20T15:08:08;21.70;47.80
29663;DHT22;16578;53.266;7.920;2023-05-20T15:10:34;21.60;47.70
29663;DHT22;16578;53.266;7.920;2023-05-20T15:13:00;21.60;47.70
29663;DHT22;16578;53.266;7.920;2023-05-20T15:15:25;21.60;47.60
29663;DHT22;16578;53.266;7.920;2023-05-20T15:17:51;21.60;48.50
29663;DHT22;16578;53.266;7.920;2023-05-20T15:20:16;21.60;47.60
29663;DHT22;16578;53.266;7.920;2023-05-20T15:22:42;21.60;47.60
29663;DHT22;16578;53.266;7.920;2023-05-20T15:25:12;21.50;47.80
29663;DHT22;16578;53.266;7.920;2023-05-20T15:27:40;21.40;47.90
29663;DHT22;16578;53.266;7.920;2023-05-20T15:30:06;21.40;48.00
29663;DHT22;16578;53.266;7.920;2023-05-20T15:32:32;21.40;48.10